createdAt,value
2018-01-28T00:00:24.717Z,15.50
2018-01-28T00:01:24.734Z,13.10
2018-01-28T00:02:24.751Z,12.20
2018-01-28T00:03:24.767Z,12.60
2018-01-28T00:04:24.782Z,13.90
2018-01-28T00:05:24.799Z,12.40
2018-01-28T00:06:24.815Z,17.80
2018-01-28T00:07:24.832Z,17.60
2018-01-28T00:08:24.847Z,17.70
2018-01-28T00:09:24.865Z,14.90
2018-01-28T00:10:24.881Z,14.80
2018-01-28T00:11:24.897Z,15.30
2018-01-28T00:12:24.913Z,19.20
2018-01-28T00:13:24.930Z,17.40
2018-01-28T00:14:24.947Z,18.00
2018-01-28T00:15:24.963Z,13.40
2018-01-28T00:16:24.978Z,23.10
2018-01-28T00:17:24.995Z,21.80
2018-01-28T00:18:25.011Z,13.90
2018-01-28T00:19:25.028Z,14.30
2018-01-28T00:20:25.044Z,16.00
2018-01-28T00:21:25.060Z,15.90
2018-01-28T00:22:25.076Z,18.20
2018-01-28T00:23:25.093Z,20.50
2018-01-28T00:24:25.109Z,28.90
2018-01-28T00:25:25.125Z,15.40
2018-01-28T00:26:25.142Z,19.10
2018-01-28T00:27:25.158Z,17.70
2018-01-28T00:28:25.174Z,15.80
2018-01-28T00:29:25.191Z,20.00
2018-01-28T00:30:25.207Z,22.20
2018-01-28T00:31:25.225Z,16.10
2018-01-28T00:32:25.239Z,15.50
2018-01-28T00:33:25.256Z,17.30
2018-01-28T00:34:25.273Z,13.70
2018-01-28T00:35:25.289Z,12.50
2018-01-28T00:36:25.305Z,12.50
2018-01-28T00:37:25.321Z,11.90
2018-01-28T00:38:25.338Z,13.60
2018-01-28T00:39:25.355Z,14.90
2018-01-28T00:40:25.370Z,15.50
2018-01-28T00:41:25.387Z,12.90
2018-01-28T00:42:25.403Z,12.70
2018-01-28T00:43:25.447Z,12.00
2018-01-28T00:44:25.435Z,14.80
2018-01-28T00:45:25.452Z,13.30
2018-01-28T00:46:25.468Z,12.50
2018-01-28T00:47:25.485Z,13.10
2018-01-28T00:48:25.500Z,12.50
2018-01-28T00:49:25.517Z,12.90
2018-01-28T00:50:25.533Z,14.40
2018-01-28T00:51:25.550Z,15.80
2018-01-28T00:52:25.566Z,13.50
2018-01-28T00:53:25.581Z,13.50
2018-01-28T00:54:25.604Z,12.90
2018-01-28T00:55:25.617Z,12.90
2018-01-28T00:56:25.684Z,14.40
2018-01-28T00:57:25.647Z,12.70
2018-01-28T00:58:25.669Z,12.20
2018-01-28T00:59:25.680Z,13.70
2018-01-28T01:00:25.696Z,13.00
2018-01-28T01:01:25.712Z,14.40
2018-01-28T01:02:25.729Z,13.30
2018-01-28T01:03:25.745Z,11.90
2018-01-28T01:04:25.761Z,15.20
2018-01-28T01:05:25.779Z,22.60
2018-01-28T01:06:25.794Z,20.20
2018-01-28T01:07:25.811Z,14.90
2018-01-28T01:08:25.827Z,15.80
2018-01-28T01:09:25.844Z,21.00
2018-01-28T01:10:25.860Z,13.70
2018-01-28T01:11:25.877Z,15.10
2018-01-28T01:12:25.891Z,12.80
2018-01-28T01:13:25.908Z,12.90
2018-01-28T01:14:25.925Z,12.90
2018-01-28T01:15:25.943Z,12.80
2018-01-28T01:16:26.109Z,13.30
2018-01-28T01:17:25.977Z,12.70
2018-01-28T01:18:25.990Z,13.40
2018-01-28T01:19:26.008Z,16.00
2018-01-28T01:20:26.023Z,15.50
2018-01-28T01:21:26.193Z,14.80
2018-01-28T01:22:26.056Z,13.70
2018-01-28T01:23:26.073Z,14.30
2018-01-28T01:24:26.089Z,15.60
2018-01-28T01:25:26.105Z,19.40
2018-01-28T01:26:26.128Z,16.90
2018-01-28T01:27:26.137Z,15.30
2018-01-28T01:28:26.154Z,14.10
2018-01-28T01:29:26.171Z,13.90
2018-01-28T01:30:26.188Z,15.40
2018-01-28T01:31:26.204Z,14.60
2018-01-28T01:32:26.221Z,14.20
2018-01-28T01:33:26.236Z,14.70
2018-01-28T01:34:26.252Z,15.20
2018-01-28T01:35:26.270Z,14.90
2018-01-28T01:36:26.284Z,14.90
2018-01-28T01:37:26.302Z,15.50
2018-01-28T01:38:26.318Z,16.70
2018-01-28T01:39:26.986Z,15.60
2018-01-28T01:40:26.350Z,18.60
2018-01-28T01:41:26.367Z,18.00
2018-01-28T01:42:26.383Z,20.10
2018-01-28T01:43:26.400Z,15.40
2018-01-28T01:44:26.416Z,17.00
2018-01-28T01:45:26.432Z,17.90
2018-01-28T01:46:26.449Z,14.40
2018-01-28T01:47:26.466Z,15.00
2018-01-28T01:48:26.481Z,14.70
2018-01-28T01:49:26.497Z,13.10
2018-01-28T01:50:26.515Z,14.70
2018-01-28T01:51:26.531Z,56.60
2018-01-28T01:52:26.546Z,18.60
2018-01-28T01:53:26.563Z,15.30
2018-01-28T01:54:26.579Z,15.80
2018-01-28T01:55:26.597Z,16.00
2018-01-28T01:56:26.613Z,16.30
2018-01-28T01:57:26.628Z,16.20
2018-01-28T01:58:26.645Z,14.40
2018-01-28T01:59:26.662Z,14.40
2018-01-28T02:00:26.677Z,16.00
2018-01-28T02:01:26.694Z,14.00
2018-01-28T02:02:26.711Z,16.80
2018-01-28T02:03:26.729Z,15.50
2018-01-28T02:04:26.743Z,15.80
2018-01-28T02:05:26.759Z,14.10
2018-01-28T02:06:26.776Z,14.70
2018-01-28T02:07:26.793Z,15.00
2018-01-28T02:08:26.811Z,15.70
2018-01-28T02:09:26.825Z,14.50
2018-01-28T02:10:26.842Z,15.30
2018-01-28T02:11:26.858Z,14.50
2018-01-28T02:12:26.874Z,14.00
2018-01-28T02:13:26.891Z,14.60
2018-01-28T02:14:26.907Z,15.10
2018-01-28T02:15:26.924Z,18.00
2018-01-28T02:16:26.940Z,15.20
2018-01-28T02:17:26.956Z,15.30
2018-01-28T02:18:26.975Z,16.50
2018-01-28T02:19:26.989Z,15.60
2018-01-28T02:20:27.003Z,15.60
2018-01-28T02:21:27.022Z,15.80
2018-01-28T02:22:27.038Z,17.00
2018-01-28T02:23:27.055Z,15.80
2018-01-28T02:24:27.070Z,14.90
2018-01-28T02:25:27.088Z,15.40
2018-01-28T02:26:27.104Z,16.00
2018-01-28T02:27:27.121Z,14.80
2018-01-28T02:28:27.137Z,14.10
2018-01-28T02:29:27.154Z,15.70
2018-01-28T02:30:27.168Z,14.30
2018-01-28T02:31:27.186Z,15.30
2018-01-28T02:32:27.202Z,14.90
2018-01-28T02:33:27.220Z,15.20
2018-01-28T02:34:27.236Z,15.50
2018-01-28T02:35:27.252Z,14.70
2018-01-28T02:36:27.268Z,15.10
2018-01-28T02:37:27.285Z,16.10
2018-01-28T02:38:27.301Z,14.30
2018-01-28T02:39:27.318Z,19.40
2018-01-28T02:40:27.334Z,15.60
2018-01-28T02:41:27.356Z,16.50
2018-01-28T02:42:27.368Z,17.90
2018-01-28T02:43:27.384Z,18.80
2018-01-28T02:44:27.400Z,16.40
2018-01-28T02:45:27.417Z,15.20
2018-01-28T02:46:27.433Z,15.70
2018-01-28T02:47:27.451Z,14.70
2018-01-28T02:48:27.470Z,16.30
2018-01-28T02:49:27.483Z,14.70
2018-01-28T02:50:27.500Z,15.20
2018-01-28T02:51:27.517Z,14.40
2018-01-28T02:52:27.532Z,14.20
2018-01-28T02:53:27.549Z,14.60
2018-01-28T02:54:27.566Z,15.30
2018-01-28T02:55:27.583Z,16.10
2018-01-28T02:56:27.598Z,15.60
2018-01-28T02:57:27.613Z,15.10
2018-01-28T02:58:27.637Z,16.20
2018-01-28T02:59:27.649Z,15.80
2018-01-28T03:00:27.665Z,15.90
2018-01-28T03:01:27.682Z,16.20
2018-01-28T03:02:27.698Z,17.90
2018-01-28T03:03:27.715Z,18.60
2018-01-28T03:04:27.732Z,17.80
2018-01-28T03:05:27.748Z,18.10
2018-01-28T03:06:27.764Z,19.60
2018-01-28T03:07:27.783Z,19.50
2018-01-28T03:08:27.798Z,18.60
2018-01-28T03:09:27.816Z,18.20
2018-01-28T03:10:27.831Z,19.90
2018-01-28T03:11:27.848Z,18.00
2018-01-28T03:12:27.864Z,16.80
2018-01-28T03:13:27.884Z,17.60
2018-01-28T03:14:27.898Z,17.00
2018-01-28T03:15:27.916Z,16.50
2018-01-28T03:16:27.932Z,18.20
2018-01-28T03:17:27.948Z,16.90
2018-01-28T03:18:27.965Z,16.30
2018-01-28T03:19:27.981Z,17.10
2018-01-28T03:20:27.998Z,17.50
2018-01-28T03:21:28.015Z,17.30
2018-01-28T03:22:28.032Z,15.80
2018-01-28T03:23:28.049Z,16.10
2018-01-28T03:24:28.065Z,15.10
2018-01-28T03:25:28.082Z,15.90
2018-01-28T03:26:28.098Z,16.00
2018-01-28T03:27:28.116Z,15.00
2018-01-28T03:28:28.131Z,15.20
2018-01-28T03:29:28.148Z,15.90
2018-01-28T03:30:28.166Z,15.00
2018-01-28T03:31:28.183Z,15.00
2018-01-28T03:32:28.198Z,15.30
2018-01-28T03:33:28.215Z,15.20
2018-01-28T03:34:28.238Z,16.00
2018-01-28T03:35:28.249Z,15.00
2018-01-28T03:36:28.265Z,14.60
2018-01-28T03:37:28.282Z,13.50
2018-01-28T03:38:28.299Z,14.50
2018-01-28T03:39:28.316Z,14.70
2018-01-28T03:40:28.332Z,14.70
2018-01-28T03:41:28.349Z,14.30
2018-01-28T03:42:28.366Z,14.70
2018-01-28T03:43:28.383Z,15.40
2018-01-28T03:44:28.399Z,16.00
2018-01-28T03:45:28.416Z,14.90
2018-01-28T03:46:28.433Z,14.20
2018-01-28T03:47:28.450Z,15.30
2018-01-28T03:48:28.466Z,15.20
2018-01-28T03:49:28.483Z,16.20
2018-01-28T03:50:28.500Z,14.50
2018-01-28T03:51:28.517Z,14.60
2018-01-28T03:52:28.533Z,13.60
2018-01-28T03:53:28.550Z,14.20
2018-01-28T03:54:28.567Z,12.80
2018-01-28T03:55:28.584Z,13.50
2018-01-28T03:56:28.601Z,13.10
2018-01-28T03:57:28.618Z,13.20
2018-01-28T03:58:28.635Z,13.20
2018-01-28T03:59:28.652Z,13.00
2018-01-28T04:00:28.668Z,13.30
2018-01-28T04:01:28.685Z,13.00
2018-01-28T04:02:28.730Z,12.50
2018-01-28T04:03:28.869Z,13.10
2018-01-28T04:04:28.735Z,13.60
2018-01-28T04:05:28.753Z,12.40
2018-01-28T04:06:28.769Z,12.30
2018-01-28T04:07:28.785Z,13.30
2018-01-28T04:08:28.802Z,12.60
2018-01-28T04:09:28.821Z,13.30
2018-01-28T04:10:28.837Z,12.90
2018-01-28T04:11:28.854Z,13.10
2018-01-28T04:12:28.871Z,13.10
2018-01-28T04:13:28.888Z,12.20
2018-01-28T04:14:28.905Z,13.20
2018-01-28T04:15:28.922Z,14.00
2018-01-28T04:16:28.939Z,12.40
2018-01-28T04:17:28.955Z,12.80
2018-01-28T04:18:28.973Z,12.40
2018-01-28T04:19:28.990Z,14.10
2018-01-28T04:20:29.006Z,13.80
2018-01-28T04:21:29.023Z,14.30
2018-01-28T04:22:29.040Z,13.30
2018-01-28T04:23:29.058Z,14.00
2018-01-28T04:24:29.074Z,13.20
2018-01-28T04:25:29.092Z,12.70
2018-01-28T04:26:29.108Z,13.20
2018-01-28T04:27:29.125Z,13.80
2018-01-28T04:28:29.142Z,14.20
2018-01-28T04:29:29.159Z,14.30
2018-01-28T04:30:29.176Z,13.30
2018-01-28T04:31:29.193Z,13.80
2018-01-28T04:32:29.209Z,14.40
2018-01-28T04:33:29.227Z,14.30
2018-01-28T04:34:29.244Z,13.90
2018-01-28T04:35:29.261Z,12.80
2018-01-28T04:36:29.278Z,13.40
2018-01-28T04:37:29.295Z,14.20
2018-01-28T04:38:29.317Z,13.00
2018-01-28T04:39:29.332Z,13.90
2018-01-28T04:40:29.345Z,14.10
2018-01-28T04:41:29.363Z,13.70
2018-01-28T04:42:29.380Z,14.30
2018-01-28T04:43:29.398Z,13.80
2018-01-28T04:44:29.414Z,13.70
2018-01-28T04:45:29.431Z,13.20
2018-01-28T04:46:29.448Z,14.00
2018-01-28T04:47:29.465Z,14.00
2018-01-28T04:48:29.482Z,13.40
2018-01-28T04:49:29.499Z,14.50
2018-01-28T04:50:29.516Z,13.60
2018-01-28T04:51:29.534Z,13.70
2018-01-28T04:52:29.550Z,13.70
2018-01-28T04:53:29.571Z,12.90
2018-01-28T04:54:29.585Z,13.20
2018-01-28T04:55:29.602Z,14.80
2018-01-28T04:56:29.618Z,13.20
2018-01-28T04:57:29.635Z,13.80
2018-01-28T04:58:29.653Z,13.80
2018-01-28T04:59:29.670Z,13.30
2018-01-28T05:00:29.687Z,13.90
2018-01-28T05:01:29.709Z,14.40
2018-01-28T05:02:29.722Z,13.90
2018-01-28T05:03:29.741Z,13.60
2018-01-28T05:04:29.756Z,13.70
2018-01-28T05:05:29.772Z,13.20
2018-01-28T05:06:29.799Z,13.90
2018-01-28T05:07:29.808Z,13.80
2018-01-28T05:08:29.824Z,13.90
2018-01-28T05:09:29.842Z,14.90
2018-01-28T05:10:29.864Z,14.00
2018-01-28T05:11:29.876Z,14.10
2018-01-28T05:12:29.891Z,15.10
2018-01-28T05:13:29.910Z,14.80
2018-01-28T05:14:29.929Z,14.70
2018-01-28T05:15:29.945Z,14.70
2018-01-28T05:16:29.961Z,14.70
2018-01-28T05:17:29.979Z,16.30
2018-01-28T05:18:29.997Z,14.70
2018-01-28T05:19:30.016Z,14.90
2018-01-28T05:20:30.081Z,15.40
2018-01-28T05:21:30.048Z,15.10
2018-01-28T05:22:30.065Z,16.00
2018-01-28T05:23:30.083Z,15.10
2018-01-28T05:24:30.099Z,15.10
2018-01-28T05:25:30.117Z,16.40
2018-01-28T05:26:30.134Z,17.40
2018-01-28T05:27:30.152Z,18.50
2018-01-28T05:28:30.168Z,16.60
2018-01-28T05:29:30.186Z,17.30
2018-01-28T05:30:30.203Z,16.80
2018-01-28T05:31:30.220Z,18.50
2018-01-28T05:32:30.237Z,18.10
2018-01-28T05:33:30.254Z,18.60
2018-01-28T05:34:30.272Z,19.00
2018-01-28T05:35:30.289Z,17.90
2018-01-28T05:36:30.455Z,18.60
2018-01-28T05:37:30.324Z,19.70
2018-01-28T05:38:30.340Z,18.70
2018-01-28T05:39:30.358Z,19.90
2018-01-28T05:40:30.375Z,18.80
2018-01-28T05:41:30.392Z,19.50
2018-01-28T05:42:30.410Z,20.70
2018-01-28T05:43:30.432Z,19.60
2018-01-28T05:44:30.444Z,20.10
2018-01-28T05:45:30.461Z,20.20
2018-01-28T05:46:30.480Z,19.70
2018-01-28T05:47:30.496Z,21.40
2018-01-28T05:48:30.513Z,21.20
2018-01-28T05:49:30.681Z,22.60
2018-01-28T05:50:30.547Z,21.30
2018-01-28T05:51:30.575Z,19.90
2018-01-28T05:52:30.582Z,20.40
2018-01-28T05:53:30.601Z,21.20
2018-01-28T05:54:30.616Z,21.10
2018-01-28T05:55:30.634Z,21.40
2018-01-28T05:56:30.651Z,21.60
2018-01-28T05:57:30.668Z,20.70
2018-01-28T05:58:30.685Z,21.90
2018-01-28T05:59:30.723Z,21.70
2018-01-28T06:00:30.720Z,22.40
2018-01-28T06:01:30.738Z,21.40
2018-01-28T06:02:30.755Z,22.20
2018-01-28T06:03:30.775Z,21.80
2018-01-28T06:04:30.789Z,23.00
2018-01-28T06:05:30.807Z,22.00
2018-01-28T06:06:30.824Z,22.30
2018-01-28T06:07:30.842Z,22.40
2018-01-28T06:08:30.858Z,22.10
2018-01-28T06:09:30.876Z,24.10
2018-01-28T06:10:30.894Z,22.50
2018-01-28T06:11:30.911Z,22.80
2018-01-28T06:12:30.928Z,23.80
2018-01-28T06:13:30.948Z,23.20
2018-01-28T06:14:30.963Z,23.40
2018-01-28T06:15:30.980Z,23.40
2018-01-28T06:16:30.999Z,23.20
2018-01-28T06:17:31.015Z,23.40
2018-01-28T06:18:31.032Z,23.50
2018-01-28T06:19:31.053Z,23.30
2018-01-28T06:20:31.066Z,22.40
2018-01-28T06:21:31.084Z,22.10
2018-01-28T06:22:31.102Z,22.70
2018-01-28T06:23:31.119Z,23.10
2018-01-28T06:24:31.136Z,23.70
2018-01-28T06:25:31.154Z,22.80
2018-01-28T06:26:31.172Z,22.60
2018-01-28T06:27:31.190Z,24.00
2018-01-28T06:28:31.205Z,22.80
2018-01-28T06:29:31.229Z,23.80
2018-01-28T06:30:31.241Z,24.10
2018-01-28T06:31:31.258Z,23.20
2018-01-28T06:32:31.275Z,24.70
2018-01-28T06:33:31.293Z,25.10
2018-01-28T06:34:31.309Z,25.20
2018-01-28T06:35:31.328Z,25.70
2018-01-28T06:36:31.347Z,26.10
2018-01-28T06:37:31.361Z,26.40
2018-01-28T06:38:31.380Z,26.20
2018-01-28T06:39:31.398Z,25.90
2018-01-28T06:40:31.414Z,26.50
2018-01-28T06:41:31.432Z,27.60
2018-01-28T06:42:31.448Z,27.00
2018-01-28T06:43:31.468Z,27.90
2018-01-28T06:44:31.490Z,27.20
2018-01-28T06:45:31.502Z,27.50
2018-01-28T06:46:31.519Z,27.90
2018-01-28T06:47:31.537Z,29.10
2018-01-28T06:48:31.553Z,30.50
2018-01-28T06:49:31.571Z,29.30
2018-01-28T06:50:31.593Z,29.40
2018-01-28T06:51:31.606Z,30.00
2018-01-28T06:52:31.623Z,30.50
2018-01-28T06:53:31.640Z,30.70
2018-01-28T06:54:31.658Z,27.80
2018-01-28T06:55:31.676Z,30.10
2018-01-28T06:56:31.692Z,31.20
2018-01-28T06:57:31.710Z,29.90
2018-01-28T06:58:31.728Z,31.10
2018-01-28T06:59:31.745Z,30.70
2018-01-28T07:00:31.762Z,31.40
2018-01-28T07:01:31.780Z,30.80
2018-01-28T07:02:31.796Z,31.80
2018-01-28T07:03:31.816Z,32.50
2018-01-28T07:04:31.832Z,32.60
2018-01-28T07:05:31.850Z,31.30
2018-01-28T07:06:31.868Z,31.50
2018-01-28T07:07:31.886Z,32.10
2018-01-28T07:08:31.904Z,32.90
2018-01-28T07:09:31.920Z,33.70
2018-01-28T07:10:31.938Z,32.40
2018-01-28T07:11:31.955Z,33.40
2018-01-28T07:12:31.972Z,35.20
2018-01-28T07:13:31.989Z,33.90
2018-01-28T07:14:32.007Z,34.10
2018-01-28T07:15:32.025Z,34.20
2018-01-28T07:16:32.042Z,33.90
2018-01-28T07:17:32.061Z,35.10
2018-01-28T07:18:32.077Z,33.50
2018-01-28T07:19:32.095Z,33.80
2018-01-28T07:20:32.111Z,33.30
2018-01-28T07:21:32.130Z,35.50
2018-01-28T07:22:32.146Z,34.70
2018-01-28T07:23:32.166Z,34.50
2018-01-28T07:24:32.182Z,33.90
2018-01-28T07:25:32.201Z,34.40
2018-01-28T07:26:32.218Z,34.50
2018-01-28T07:27:32.235Z,33.20
2018-01-28T07:28:32.253Z,33.70
2018-01-28T07:29:32.269Z,34.50
2018-01-28T07:30:32.287Z,33.90
2018-01-28T07:31:32.305Z,33.10
2018-01-28T07:32:32.322Z,32.20
2018-01-28T07:33:32.340Z,33.40
2018-01-28T07:34:32.357Z,32.60
2018-01-28T07:35:32.377Z,32.10
2018-01-28T07:36:32.392Z,32.80
2018-01-28T07:37:32.410Z,33.20
2018-01-28T07:38:32.429Z,30.60
2018-01-28T07:39:32.445Z,31.20
2018-01-28T07:40:32.462Z,28.90
2018-01-28T07:41:32.480Z,30.50
2018-01-28T07:42:32.498Z,29.20
2018-01-28T07:43:32.516Z,29.30
2018-01-28T07:44:32.533Z,28.60
2018-01-28T07:45:32.550Z,28.00
2018-01-28T07:46:32.568Z,28.50
2018-01-28T07:47:32.586Z,28.10
2018-01-28T07:48:32.604Z,28.90
2018-01-28T07:49:32.621Z,27.80
2018-01-28T07:50:32.639Z,26.60
2018-01-28T07:51:32.657Z,27.60
2018-01-28T07:52:32.674Z,27.00
2018-01-28T07:53:32.693Z,26.70
2018-01-28T07:54:32.711Z,27.40
2018-01-28T07:55:32.728Z,26.70
2018-01-28T07:56:32.752Z,26.00
2018-01-28T07:57:32.763Z,25.20
2018-01-28T07:58:32.780Z,26.10
2018-01-28T07:59:32.798Z,25.90
2018-01-28T08:00:32.815Z,25.80
2018-01-28T08:01:32.833Z,25.10
2018-01-28T08:02:32.851Z,25.10
2018-01-28T08:03:33.020Z,25.50
2018-01-28T08:04:32.886Z,24.60
2018-01-28T08:05:32.905Z,24.50
2018-01-28T08:06:32.923Z,24.10
2018-01-28T08:07:32.940Z,23.60
2018-01-28T08:08:32.957Z,23.00
2018-01-28T08:09:32.976Z,23.10
2018-01-28T08:10:32.993Z,22.60
2018-01-28T08:11:33.013Z,23.50
2018-01-28T08:12:33.028Z,22.30
2018-01-28T08:13:33.048Z,22.90
2018-01-28T08:14:33.065Z,21.20
2018-01-28T08:15:33.083Z,21.30
2018-01-28T08:16:33.100Z,20.80
2018-01-28T08:17:33.118Z,22.70
2018-01-28T08:18:33.136Z,22.30
2018-01-28T08:19:33.154Z,22.20
2018-01-28T08:20:33.172Z,21.80
2018-01-28T08:21:33.190Z,22.20
2018-01-28T08:22:33.207Z,21.30
2018-01-28T08:23:33.226Z,22.20
2018-01-28T08:24:33.242Z,22.00
2018-01-28T08:25:33.261Z,22.10
2018-01-28T08:26:33.280Z,22.40
2018-01-28T08:27:33.297Z,23.50
2018-01-28T08:28:33.314Z,22.10
2018-01-28T08:29:33.332Z,22.00
2018-01-28T08:30:33.350Z,23.40
2018-01-28T08:31:33.369Z,21.50
2018-01-28T08:32:33.386Z,21.10
2018-01-28T08:33:33.404Z,22.20
2018-01-28T08:34:33.422Z,22.90
2018-01-28T08:35:33.440Z,22.10
2018-01-28T08:36:33.457Z,22.20
2018-01-28T08:37:33.476Z,23.10
2018-01-28T08:38:33.495Z,22.00
2018-01-28T08:39:33.513Z,22.80
2018-01-28T08:40:33.529Z,24.10
2018-01-28T08:41:33.547Z,23.70
2018-01-28T08:42:33.566Z,23.20
2018-01-28T08:43:33.584Z,22.70
2018-01-28T08:44:33.601Z,24.10
2018-01-28T08:45:33.619Z,23.60
2018-01-28T08:46:33.637Z,23.90
2018-01-28T08:47:33.656Z,24.60
2018-01-28T08:48:33.673Z,24.60
2018-01-28T08:49:33.848Z,24.20
2018-01-28T08:50:33.709Z,24.60
2018-01-28T08:51:33.728Z,24.30
2018-01-28T08:52:33.745Z,25.10
2018-01-28T08:53:33.764Z,26.10
2018-01-28T08:54:33.781Z,25.70
2018-01-28T08:55:33.800Z,24.40
2018-01-28T08:56:33.817Z,24.60
2018-01-28T08:57:33.838Z,24.20
2018-01-28T08:58:33.853Z,23.40
2018-01-28T08:59:33.872Z,24.50
2018-01-28T09:00:33.889Z,25.90
2018-01-28T09:01:33.907Z,24.40
2018-01-28T09:02:33.925Z,25.00
2018-01-28T09:03:33.944Z,25.00
2018-01-28T09:04:33.961Z,25.50
2018-01-28T09:05:33.979Z,26.00
2018-01-28T09:06:33.998Z,25.00
2018-01-28T09:07:34.017Z,26.70
2018-01-28T09:08:34.034Z,26.00
2018-01-28T09:09:34.052Z,26.00
2018-01-28T09:10:34.070Z,25.90
2018-01-28T09:11:34.090Z,27.50
2018-01-28T09:12:34.106Z,25.50
2018-01-28T09:13:34.124Z,26.20
2018-01-28T09:14:34.143Z,26.10
2018-01-28T09:15:34.161Z,26.60
2018-01-28T09:16:34.186Z,26.50
2018-01-28T09:17:34.198Z,27.30
2018-01-28T09:18:34.215Z,26.10
2018-01-28T09:19:34.234Z,29.00
2018-01-28T09:20:34.251Z,27.20
2018-01-28T09:21:34.272Z,26.80
2018-01-28T09:22:34.288Z,28.10
2018-01-28T09:23:34.307Z,28.00
2018-01-28T09:24:34.324Z,28.00
2018-01-28T09:25:34.342Z,27.90
2018-01-28T09:26:34.361Z,27.90
2018-01-28T09:27:34.379Z,29.10
2018-01-28T09:28:34.398Z,28.60
2018-01-28T09:29:34.415Z,27.90
2018-01-28T09:30:34.433Z,29.40
2018-01-28T09:31:34.453Z,29.00
2018-01-28T09:32:34.471Z,31.30
2018-01-28T09:33:34.491Z,29.70
2018-01-28T09:34:34.507Z,32.40
2018-01-28T09:35:34.525Z,38.50
2018-01-28T09:36:34.542Z,28.90
2018-01-28T09:37:34.561Z,29.70
2018-01-28T09:38:34.579Z,29.90
2018-01-28T09:39:34.598Z,32.60
2018-01-28T09:40:34.615Z,31.00
2018-01-28T09:41:34.634Z,29.60
2018-01-28T09:42:34.652Z,31.00
2018-01-28T09:43:34.671Z,31.50
2018-01-28T09:44:34.689Z,30.80
2018-01-28T09:45:34.706Z,32.40
2018-01-28T09:46:34.725Z,32.50
2018-01-28T09:47:34.772Z,33.00
2018-01-28T09:48:34.912Z,33.10
2018-01-28T09:49:34.784Z,33.30
2018-01-28T09:50:34.798Z,32.50
2018-01-28T09:51:34.816Z,34.00
2018-01-28T09:52:34.834Z,34.40
2018-01-28T09:53:34.853Z,35.10
2018-01-28T09:54:34.872Z,34.30
2018-01-28T09:55:34.889Z,35.60
2018-01-28T09:56:34.907Z,34.70
2018-01-28T09:57:34.926Z,35.00
2018-01-28T09:58:34.944Z,34.20
2018-01-28T09:59:34.963Z,35.50
2018-01-28T10:00:34.980Z,34.20
2018-01-28T10:01:34.999Z,34.60
2018-01-28T10:02:35.017Z,34.40
2018-01-28T10:03:35.036Z,34.60
2018-01-28T10:04:35.053Z,34.80
2018-01-28T10:05:35.071Z,34.10
2018-01-28T10:06:35.091Z,34.40
2018-01-28T10:07:35.109Z,36.00
2018-01-28T10:08:35.127Z,35.30
2018-01-28T10:09:35.146Z,35.40
2018-01-28T10:10:35.165Z,35.70
2018-01-28T10:11:35.183Z,36.00
2018-01-28T10:12:35.200Z,36.10
2018-01-28T10:13:35.219Z,35.00
2018-01-28T10:14:35.238Z,34.70
2018-01-28T10:15:35.256Z,35.50
2018-01-28T10:16:35.276Z,34.90
2018-01-28T10:17:35.294Z,34.20
2018-01-28T10:18:35.312Z,34.80
2018-01-28T10:19:35.330Z,34.80
2018-01-28T10:20:35.347Z,35.30
2018-01-28T10:21:35.367Z,35.70
2018-01-28T10:22:35.386Z,33.80
2018-01-28T10:23:35.404Z,35.40
2018-01-28T10:24:35.422Z,33.50
2018-01-28T10:25:35.441Z,34.60
2018-01-28T10:26:35.460Z,34.30
2018-01-28T10:27:35.478Z,34.90
2018-01-28T10:28:35.497Z,34.00
2018-01-28T10:29:35.515Z,34.60
2018-01-28T10:30:35.534Z,34.40
2018-01-28T10:31:35.553Z,32.20
2018-01-28T10:32:35.571Z,33.60
2018-01-28T10:33:35.590Z,33.60
2018-01-28T10:34:35.608Z,34.10
2018-01-28T10:35:35.627Z,33.90
2018-01-28T10:36:35.645Z,33.90
2018-01-28T10:37:35.666Z,33.20
2018-01-28T10:38:35.682Z,31.20
2018-01-28T10:39:35.701Z,31.70
2018-01-28T10:40:35.719Z,32.40
2018-01-28T10:41:35.738Z,30.70
2018-01-28T10:42:35.757Z,32.90
2018-01-28T10:43:35.776Z,31.80
2018-01-28T10:44:35.793Z,32.30
2018-01-28T10:45:35.814Z,31.20
2018-01-28T10:46:35.831Z,32.20
2018-01-28T10:47:35.851Z,31.60
2018-01-28T10:48:35.868Z,33.90
2018-01-28T10:49:35.887Z,33.90
2018-01-28T10:50:35.906Z,31.70
2018-01-28T10:51:35.926Z,31.60
2018-01-28T10:52:35.943Z,33.00
2018-01-28T10:53:36.112Z,32.80
2018-01-28T10:54:35.980Z,32.40
2018-01-28T10:55:35.999Z,31.50
2018-01-28T10:56:36.017Z,32.00
2018-01-28T10:57:36.036Z,30.50
2018-01-28T10:58:36.205Z,34.00
2018-01-28T10:59:36.074Z,33.10
2018-01-28T11:00:36.091Z,32.20
2018-01-28T11:01:36.110Z,31.80
2018-01-28T11:02:36.130Z,33.20
2018-01-28T11:03:36.151Z,33.90
2018-01-28T11:04:36.194Z,31.50
2018-01-28T11:05:36.185Z,30.30
2018-01-28T11:06:36.204Z,30.30
2018-01-28T11:07:36.223Z,30.70
2018-01-28T11:08:36.241Z,30.60
2018-01-28T11:09:36.263Z,32.00
2018-01-28T11:10:36.278Z,33.00
2018-01-28T11:11:36.298Z,29.80
2018-01-28T11:12:36.317Z,30.90
2018-01-28T11:13:36.334Z,30.70
2018-01-28T11:14:36.354Z,29.80
2018-01-28T11:15:36.374Z,31.00
2018-01-28T11:16:36.391Z,31.10
2018-01-28T11:17:36.409Z,28.00
2018-01-28T11:18:36.428Z,28.80
2018-01-28T11:19:36.598Z,28.90
2018-01-28T11:20:36.465Z,31.00
2018-01-28T11:21:36.485Z,28.40
2018-01-28T11:22:36.505Z,28.00
2018-01-28T11:23:36.522Z,27.70
2018-01-28T11:24:36.541Z,27.10
2018-01-28T11:25:36.559Z,28.20
2018-01-28T11:26:36.579Z,26.70
2018-01-28T11:27:36.598Z,26.60
2018-01-28T11:28:36.616Z,25.00
2018-01-28T11:29:36.635Z,25.00
2018-01-28T11:30:36.660Z,24.60
2018-01-28T11:31:36.674Z,24.60
2018-01-28T11:32:36.692Z,23.70
2018-01-28T11:33:36.711Z,24.30
2018-01-28T11:34:36.731Z,25.30
2018-01-28T11:35:36.750Z,23.50
2018-01-28T11:36:36.768Z,22.90
2018-01-28T11:37:36.787Z,23.40
2018-01-28T11:38:36.807Z,21.60
2018-01-28T11:39:36.827Z,23.00
2018-01-28T11:40:36.844Z,22.60
2018-01-28T11:41:36.863Z,23.60
2018-01-28T11:42:36.882Z,23.80
2018-01-28T11:43:36.901Z,22.60
2018-01-28T11:44:36.920Z,22.10
2018-01-28T11:45:36.939Z,23.60
2018-01-28T11:46:36.958Z,22.20
2018-01-28T11:47:36.977Z,22.90
2018-01-28T11:48:36.996Z,22.80
2018-01-28T11:49:37.015Z,24.30
2018-01-28T11:50:37.061Z,21.00
2018-01-28T11:51:37.054Z,23.60
2018-01-28T11:52:37.072Z,22.30
2018-01-28T11:53:37.093Z,22.20
2018-01-28T11:54:37.111Z,21.00
2018-01-28T11:55:37.130Z,21.40
2018-01-28T11:56:37.148Z,21.40
2018-01-28T11:57:37.167Z,19.80
2018-01-28T11:58:37.187Z,20.80
2018-01-28T11:59:37.207Z,20.20
2018-01-28T12:00:37.225Z,20.90
2018-01-28T12:01:37.244Z,18.40
2018-01-28T12:02:37.264Z,20.60
2018-01-28T12:03:37.283Z,20.00
2018-01-28T12:04:37.322Z,20.30
2018-01-28T12:05:37.321Z,21.60
2018-01-28T12:06:37.340Z,21.10
2018-01-28T12:07:37.360Z,19.60
2018-01-28T12:08:37.378Z,20.70
2018-01-28T12:09:37.397Z,21.30
2018-01-28T12:10:37.417Z,19.80
2018-01-28T12:11:37.436Z,21.20
2018-01-28T12:12:37.455Z,20.50
2018-01-28T12:13:37.484Z,20.60
2018-01-28T12:14:37.494Z,22.10
2018-01-28T12:15:37.813Z,21.20
2018-01-28T12:16:37.532Z,19.30
2018-01-28T12:17:37.551Z,20.60
2018-01-28T12:18:37.570Z,19.20
2018-01-28T12:19:37.590Z,19.80
2018-01-28T12:20:37.608Z,19.70
2018-01-28T12:21:37.628Z,20.40
2018-01-28T12:22:37.648Z,20.40
2018-01-28T12:23:37.667Z,19.90
2018-01-28T12:24:37.686Z,19.50
2018-01-28T12:25:37.704Z,20.30
2018-01-28T12:26:37.724Z,18.60
2018-01-28T12:27:37.744Z,19.70
2018-01-28T12:28:37.763Z,19.90
2018-01-28T12:29:37.782Z,20.10
2018-01-28T12:30:37.801Z,19.60
2018-01-28T12:31:37.823Z,22.00
2018-01-28T12:32:37.839Z,20.70
2018-01-28T12:33:37.859Z,20.40
2018-01-28T12:34:37.879Z,20.10
2018-01-28T12:35:37.898Z,19.40
2018-01-28T12:36:37.918Z,19.10
2018-01-28T12:37:37.936Z,20.10
2018-01-28T12:38:37.956Z,20.40
2018-01-28T12:39:37.975Z,20.40
2018-01-28T12:40:37.994Z,20.30
2018-01-28T12:41:38.014Z,19.60
2018-01-28T12:42:38.033Z,20.10
2018-01-28T12:43:38.053Z,19.40
2018-01-28T12:44:38.072Z,20.00
2018-01-28T12:45:38.091Z,20.40
2018-01-28T12:46:38.110Z,19.70
2018-01-28T12:47:38.130Z,20.30
2018-01-28T12:48:38.148Z,21.30
2018-01-28T12:49:38.168Z,20.20
2018-01-28T12:50:38.189Z,19.80
2018-01-28T12:51:38.208Z,20.00
2018-01-28T12:52:38.226Z,20.70